createdAt,value
2022-09-13T00:04:36.549Z,13.8
2022-09-13T00:09:19.250Z,13.7
2022-09-13T00:14:02.083Z,13.7
2022-09-13T00:18:44.845Z,13.7
2022-09-13T00:31:08.712Z,13.7
2022-09-13T00:32:17.734Z,13.7
2022-09-13T00:37:00.577Z,13.6
2022-09-13T00:42:13.426Z,13.7
2022-09-13T00:46:43.481Z,13.7
2022-09-13T00:52:16.222Z,13.7
2022-09-13T01:00:58.127Z,13.4
2022-09-13T01:02:02.342Z,13.3
2022-09-13T01:05:28.809Z,13.3
2022-09-13T01:10:19.558Z,13.3
2022-09-13T01:29:36.179Z,13.5
2022-09-13T01:34:23.928Z,13.4
2022-09-13T01:39:06.694Z,13.2
2022-09-13T01:43:57.283Z,13.1
2022-09-13T01:49:34.980Z,13.1
2022-09-13T01:55:13.272Z,13
2022-09-13T02:00:01.160Z,13.2
2022-09-13T02:05:34.219Z,12.7
2022-09-13T02:14:12.947Z,12.8
2022-09-13T02:15:17.023Z,12.7
2022-09-13T02:23:56.218Z,12.3
2022-09-13T02:29:37.887Z,12.4
2022-09-13T02:35:54.968Z,12.1
2022-09-13T02:41:32.968Z,12.3
2022-09-13T02:47:11.279Z,12.6
2022-09-13T02:48:23.510Z,12.5
2022-09-13T02:53:08.911Z,12.6
2022-09-13T02:58:26.395Z,12.4
2022-09-13T03:03:34.307Z,12.4
2022-09-13T03:09:07.143Z,12.7
2022-09-13T03:13:47.800Z,12.8
2022-09-13T03:15:01.827Z,12.9
2022-09-13T03:20:22.388Z,12.6
2022-09-13T03:22:30.307Z,12.6
2022-09-13T03:24:45.527Z,12.6
2022-09-13T03:25:55.455Z,12.9
2022-09-13T03:28:59.043Z,12.6
2022-09-13T03:30:13.030Z,12.3
2022-09-13T03:31:20.403Z,12.5
2022-09-13T03:32:31.295Z,12.6
2022-09-13T03:33:45.402Z,12.5
2022-09-13T03:34:59.494Z,12.4
2022-09-13T03:36:13.679Z,12.5
2022-09-13T03:41:49.784Z,12.1
2022-09-13T03:50:06.073Z,12.3
2022-09-13T03:54:48.794Z,12.5
2022-09-13T04:13:00.821Z,11.3
2022-09-13T04:17:43.610Z,11.6
2022-09-13T04:23:06.474Z,11.8
2022-09-13T04:24:10.602Z,11.8
2022-09-13T04:27:35.802Z,12
2022-09-13T04:32:18.772Z,12
2022-09-13T04:37:31.501Z,11.9
2022-09-13T04:38:35.514Z,11.7
2022-09-13T04:45:24.105Z,11.9
2022-09-13T04:50:46.786Z,11.9
2022-09-13T04:55:29.639Z,11.4
2022-09-13T04:56:34.047Z,11.8
2022-09-13T04:57:38.071Z,11.7
2022-09-13T05:02:08.487Z,11.7
2022-09-13T05:03:13.387Z,11.9
2022-09-13T05:04:17.711Z,11.9
2022-09-13T05:05:21.998Z,12
2022-09-13T05:06:29.118Z,11.6
2022-09-13T05:10:58.990Z,11.6
2022-09-13T05:12:04.326Z,11.7
2022-09-13T05:15:01.426Z,11.6
2022-09-13T05:16:06.017Z,11.5
2022-09-13T05:17:15.060Z,11.7
2022-09-13T05:21:58.392Z,11.8
2022-09-13T05:23:02.419Z,11.8
2022-09-13T05:27:45.482Z,11.8
2022-09-13T05:28:49.651Z,12.1
2022-09-13T05:29:53.774Z,11.7
2022-09-13T05:30:59.444Z,11.6
2022-09-13T05:32:09.194Z,11.8
2022-09-13T05:33:13.314Z,11.8
2022-09-13T05:34:17.481Z,11.8
2022-09-13T05:38:58.133Z,11.8
2022-09-13T05:40:10.525Z,12.2
2022-09-13T05:44:36.998Z,11.9
2022-09-13T05:47:30.522Z,12.3
2022-09-13T05:48:34.774Z,12.5
2022-09-13T05:51:58.399Z,12.5
2022-09-13T05:55:37.244Z,12.8
2022-09-13T05:56:41.458Z,12.6
2022-09-13T05:57:45.622Z,12.5
2022-09-13T06:02:28.518Z,12.8
2022-09-13T06:07:11.895Z,13
2022-09-13T06:11:42.061Z,13
2022-09-13T06:17:14.906Z,13.1
2022-09-13T06:18:19.003Z,13.4
2022-09-13T06:19:23.218Z,13.4
2022-09-13T06:22:53.867Z,13.4
2022-09-13T06:27:48.794Z,13.5
2022-09-13T06:32:17.178Z,13.5
2022-09-13T06:33:21.283Z,14
2022-09-13T06:34:31.204Z,14.1
2022-09-13T06:35:33.474Z,13.8
2022-09-13T06:36:37.655Z,13.8
2022-09-13T06:37:42.014Z,13.8
2022-09-13T06:38:46.574Z,14
2022-09-13T06:39:50.702Z,14.2
2022-09-13T06:40:54.838Z,14.3
2022-09-13T06:46:30.679Z,14
2022-09-13T06:47:36.422Z,14.2
2022-09-13T06:48:40.806Z,14.4
2022-09-13T06:49:45.219Z,14.4
2022-09-13T06:52:43.123Z,14.5
2022-09-13T06:53:47.350Z,14.3
2022-09-13T06:58:30.182Z,14.4
2022-09-13T06:59:34.350Z,14.6
2022-09-13T07:03:28.930Z,14.8
2022-09-13T07:06:22.850Z,14.9
2022-09-13T07:07:26.700Z,14.8
2022-09-13T07:11:56.774Z,14.8
2022-09-13T07:17:31.369Z,15.4
2022-09-13T07:18:33.595Z,15.4
2022-09-13T07:24:04.235Z,15.9
2022-09-13T07:26:57.791Z,15.3
2022-09-13T07:29:51.297Z,15.9
2022-09-13T07:34:21.404Z,15.9
2022-09-13T07:40:01.931Z,15.9
2022-09-13T07:45:15.066Z,16.3
2022-09-13T07:49:58.077Z,16.5
2022-09-13T07:54:40.683Z,16.6
2022-09-13T07:55:44.993Z,16.6
2022-09-13T07:56:49.334Z,16.6
2022-09-13T08:02:22.160Z,17.4
2022-09-13T08:08:42.213Z,17.3
2022-09-13T08:09:46.482Z,17.4
2022-09-13T08:13:20.110Z,17.1
2022-09-13T08:18:03.030Z,16.7
2022-09-13T08:22:53.358Z,17.1
2022-09-13T08:24:01.909Z,17.2
2022-09-13T08:25:06.230Z,17.4
2022-09-13T08:26:10.449Z,17.7
2022-09-13T08:27:14.693Z,17.8
2022-09-13T08:32:45.455Z,17.3
2022-09-13T08:33:54.578Z,17.3
2022-09-13T08:34:58.845Z,17.2
2022-09-13T08:37:53.082Z,17.5
2022-09-13T08:38:57.218Z,17.3
2022-09-13T08:40:01.735Z,17.6
2022-09-13T08:44:44.977Z,17.7
2022-09-13T08:50:25.880Z,17.8
2022-09-13T08:51:35.493Z,17.6
2022-09-13T08:52:42.254Z,17.6
2022-09-13T08:53:56.713Z,17.6
2022-09-13T08:55:04.841Z,17.6
2022-09-13T08:58:00.949Z,18
2022-09-13T08:59:11.173Z,17.9
2022-09-13T09:00:23.398Z,18.1
2022-09-13T09:01:27.592Z,18.2
2022-09-13T09:02:46.087Z,18.1
2022-09-13T09:05:45.394Z,18.5
2022-09-13T09:06:50.325Z,18.3
2022-09-13T09:08:02.389Z,18.3
2022-09-13T09:12:50.683Z,18.7
2022-09-13T09:13:57.903Z,18.5
2022-09-13T09:15:10.070Z,18.3
2022-09-13T09:18:09.592Z,18.6
2022-09-13T09:19:18.869Z,18.7
2022-09-13T09:24:07.629Z,18.8
2022-09-13T09:28:50.974Z,19.3
2022-09-13T09:30:03.276Z,19.3
2022-09-13T09:34:39.172Z,19.6
2022-09-13T09:35:53.367Z,19.9
2022-09-13T09:37:02.469Z,20
2022-09-13T09:38:11.740Z,20.1
2022-09-13T09:39:23.825Z,20.2
2022-09-13T09:43:48.562Z,20.2
2022-09-13T09:45:00.778Z,20.2
2022-09-13T09:49:43.715Z,20.5
2022-09-13T09:54:34.579Z,20.7
2022-09-13T09:59:17.582Z,21
2022-09-13T10:04:05.453Z,21
2022-09-13T10:05:12.579Z,20.5
2022-09-13T10:08:46.083Z,20.7
2022-09-13T10:14:24.015Z,20.8
2022-09-13T10:19:11.514Z,20.6
2022-09-13T10:20:23.663Z,20.7
2022-09-13T10:23:47.057Z,20.7
2022-09-13T10:29:00.084Z,21.1
2022-09-13T10:30:10.251Z,21
2022-09-13T10:31:24.593Z,20.8
2022-09-13T10:34:48.070Z,20.9
2022-09-13T10:41:07.639Z,21.5
2022-09-13T10:45:32.234Z,21
2022-09-13T10:51:13.318Z,21.3
2022-09-13T10:52:27.590Z,21
2022-09-13T10:57:13.468Z,20.8
2022-09-13T10:58:27.815Z,21
2022-09-13T11:01:51.290Z,21.2
2022-09-13T11:06:39.490Z,21.1
2022-09-13T11:11:55.350Z,21.5
2022-09-13T11:13:09.523Z,21.7
2022-09-13T11:14:18.771Z,21.9
2022-09-13T11:15:33.072Z,22.1
2022-09-13T11:21:13.895Z,22.4
2022-09-13T11:22:23.208Z,22.2
2022-09-13T11:23:35.536Z,22.1
2022-09-13T11:28:54.361Z,22.2
2022-09-13T11:30:06.335Z,22.6
2022-09-13T11:35:22.126Z,21.9
2022-09-13T11:36:31.543Z,21.9
2022-09-13T11:37:41.225Z,22.1
2022-09-13T11:38:53.355Z,22.2
2022-09-13T11:40:02.872Z,22
2022-09-13T11:41:17.338Z,22.1
2022-09-13T11:42:28.164Z,21.8
2022-09-13T11:43:43.879Z,22.1
2022-09-13T11:44:51.319Z,22.1
2022-09-13T11:46:03.650Z,22.1
2022-09-13T11:47:12.876Z,21.9
2022-09-13T11:48:27.263Z,21.7
2022-09-13T11:49:39.255Z,21.9
2022-09-13T11:50:52.008Z,22
2022-09-13T11:52:03.330Z,21.9
2022-09-13T11:53:17.147Z,21.7
2022-09-13T11:54:27.167Z,21.5
2022-09-13T11:55:39.655Z,21.9
2022-09-13T11:56:46.643Z,21.9
2022-09-13T11:57:50.823Z,22
2022-09-13T11:59:00.203Z,22
2022-09-13T12:00:12.523Z,22
2022-09-13T12:01:16.952Z,21.9
2022-09-13T12:02:24.473Z,21.9
2022-09-13T12:03:38.877Z,21.6
2022-09-13T12:04:43.151Z,21.8
2022-09-13T12:05:55.747Z,21.8
2022-09-13T12:07:00.162Z,21.8
2022-09-13T12:08:07.418Z,21.8
2022-09-13T12:09:21.750Z,21.9
2022-09-13T12:10:26.162Z,21.7
2022-09-13T12:11:30.511Z,21.8
2022-09-13T12:12:39.874Z,21.8
2022-09-13T12:13:44.231Z,21.7
2022-09-13T12:14:51.282Z,21.5
2022-09-13T12:15:58.474Z,21.4
2022-09-13T12:17:05.693Z,21.3
2022-09-13T12:18:10.015Z,21.1
2022-09-13T12:19:17.022Z,21.1
2022-09-13T12:20:24.242Z,20.9
2022-09-13T12:21:34.014Z,21
2022-09-13T12:22:38.342Z,21.4
2022-09-13T12:23:42.714Z,21
2022-09-13T12:24:47.065Z,21
2022-09-13T12:25:51.456Z,20.9
2022-09-13T12:27:01.094Z,20.7
2022-09-13T12:29:20.266Z,20.7
2022-09-13T12:31:30.842Z,20.8
2022-09-13T12:32:35.063Z,20.9
2022-09-13T12:33:39.671Z,20.7
2022-09-13T12:34:44.080Z,20.7
2022-09-13T12:35:58.690Z,20.6
2022-09-13T12:37:13.034Z,20.6
2022-09-13T12:38:22.498Z,20.7
2022-09-13T12:39:36.981Z,20.7
2022-09-13T12:40:46.706Z,20.7
2022-09-13T12:41:50.994Z,20.6
2022-09-13T12:43:00.374Z,20.6
2022-09-13T12:44:09.745Z,20.8
2022-09-13T12:45:19.354Z,20.9
2022-09-13T12:46:33.789Z,20.8
2022-09-13T12:47:45.787Z,20.8
2022-09-13T12:48:55.014Z,20.8
2022-09-13T12:50:36.747Z,20.7
2022-09-13T12:51:24.024Z,20.9
2022-09-13T12:52:28.407Z,20.8
2022-09-13T12:53:37.833Z,20.9
2022-09-13T12:54:52.254Z,20.8
2022-09-13T12:55:59.285Z,20.9
2022-09-13T12:57:03.578Z,21
2022-09-13T12:58:13.115Z,21
2022-09-13T12:59:17.371Z,21
2022-09-13T13:00:29.643Z,20.8
2022-09-13T13:01:34.040Z,20.6
2022-09-13T13:02:38.361Z,20.7
2022-09-13T13:03:47.823Z,20.8
2022-09-13T13:04:52.505Z,20.7
2022-09-13T13:05:56.969Z,20.9
2022-09-13T13:07:08.913Z,21
2022-09-13T13:08:13.550Z,21
2022-09-13T13:09:22.375Z,20.9
2022-09-13T13:10:35.145Z,20.9
2022-09-13T13:11:39.501Z,20.7
2022-09-13T13:12:43.742Z,20.6
2022-09-13T13:13:47.830Z,20.7
2022-09-13T13:14:57.484Z,20.6
2022-09-13T13:16:01.918Z,20.5
2022-09-13T13:17:06.245Z,20.6
2022-09-13T13:18:21.645Z,20.5
2022-09-13T13:19:31.016Z,20.6
2022-09-13T13:20:35.305Z,20.7
2022-09-13T13:21:47.289Z,20.7
2022-09-13T13:22:51.816Z,20.7
2022-09-13T13:23:56.189Z,20.6
2022-09-13T13:25:10.709Z,20.5
2022-09-13T13:26:25.140Z,20.7
2022-09-13T13:27:39.488Z,20.6
2022-09-13T13:28:43.732Z,20.7
2022-09-13T13:29:48.017Z,20.7
2022-09-13T13:31:02.418Z,20.5
2022-09-13T13:32:06.662Z,20.7
2022-09-13T13:33:15.900Z,20.7
2022-09-13T13:34:27.347Z,20.5
2022-09-13T13:35:39.237Z,20.5
2022-09-13T13:36:43.608Z,20.6
2022-09-13T13:37:52.854Z,20.4
2022-09-13T13:38:56.970Z,20.4
2022-09-13T13:40:01.183Z,20.5
2022-09-13T13:41:13.123Z,20.3
2022-09-13T13:44:17.113Z,20.6
2022-09-13T13:45:21.443Z,20.5
2022-09-13T13:46:25.756Z,20.4
2022-09-13T13:47:33.521Z,20.3
2022-09-13T13:48:37.783Z,20.4
2022-09-13T13:51:31.516Z,20.4
2022-09-13T13:52:35.972Z,20.2
2022-09-13T13:53:40.064Z,20.4
2022-09-13T13:54:47.121Z,20.2
2022-09-13T13:55:54.445Z,20.1
2022-09-13T13:57:09.763Z,20.2
2022-09-13T13:58:23.533Z,20.3
2022-09-13T13:59:32.944Z,20.4
2022-09-13T14:00:37.222Z,20.4
2022-09-13T14:01:41.382Z,20.5
2022-09-13T14:02:50.008Z,20.4
2022-09-13T14:03:57.113Z,20.4
2022-09-13T14:05:07.132Z,20.5
2022-09-13T14:06:13.920Z,20.3
2022-09-13T14:07:28.448Z,20.3
2022-09-13T14:08:42.986Z,20.3
2022-09-13T14:09:57.232Z,20.2
2022-09-13T14:12:57.004Z,20.5
2022-09-13T14:14:11.437Z,20.6
2022-09-13T14:15:30.010Z,20.4
2022-09-13T14:16:39.223Z,20.4
2022-09-13T14:21:32.500Z,20.5
2022-09-13T14:24:26.132Z,20.5
2022-09-13T14:25:30.373Z,20.5
2022-09-13T14:30:13.284Z,20.4
2022-09-13T14:31:20.284Z,20.3
2022-09-13T14:32:35.136Z,20.4
2022-09-13T14:33:33.284Z,20.3
2022-09-13T14:36:27.004Z,20.4
2022-09-13T14:37:31.283Z,20.2
2022-09-13T14:38:35.478Z,20.2
2022-09-13T14:39:39.694Z,20.4
2022-09-13T14:40:53.995Z,20.2
2022-09-13T14:42:11.568Z,20.4
2022-09-13T14:43:15.836Z,20.4
2022-09-13T14:48:01.634Z,20.4
2022-09-13T14:53:37.203Z,20.4
2022-09-13T14:58:20.366Z,20.4
2022-09-13T15:01:16.899Z,20.3
2022-09-13T15:05:59.697Z,20.5
2022-09-13T15:10:47.444Z,20.4
2022-09-13T15:14:25.948Z,20.4
2022-09-13T15:19:14.190Z,20.3
2022-09-13T15:24:02.486Z,20.2
2022-09-13T15:25:06.535Z,20.3
2022-09-13T15:26:20.753Z,20.3
2022-09-13T15:29:14.285Z,20.2
2022-09-13T15:33:57.109Z,20.4
2022-09-13T15:35:11.466Z,20.3
2022-09-13T15:38:12.889Z,20.3
2022-09-13T15:43:50.575Z,20.2
2022-09-13T15:52:29.172Z,20.2
2022-09-13T15:53:33.168Z,20.1
2022-09-13T15:54:37.092Z,20.2
2022-09-13T15:59:09.455Z,20.2
2022-09-13T16:03:55.128Z,20.1
2022-09-13T16:09:07.872Z,20
2022-09-13T16:10:17.092Z,19.9
2022-09-13T16:13:40.652Z,19.9
2022-09-13T16:19:13.361Z,19.8
2022-09-13T16:37:18.591Z,19.7
2022-09-13T16:38:22.773Z,19.6
2022-09-13T16:39:26.900Z,19.5
2022-09-13T16:40:31.111Z,19.5
2022-09-13T16:41:35.217Z,19.4
2022-09-13T16:46:05.446Z,19.4
2022-09-13T16:50:48.171Z,19.5
2022-09-13T16:55:30.807Z,19.3
2022-09-13T17:01:01.244Z,19.2
2022-09-13T17:02:05.431Z,19.1
2022-09-13T17:05:31.702Z,19
2022-09-13T17:08:27.984Z,18.9
2022-09-13T17:09:34.440Z,18.8
2022-09-13T17:10:38.815Z,18.9
2022-09-13T17:11:43.311Z,19.1
2022-09-13T17:16:26.331Z,18.8
2022-09-13T17:21:08.981Z,19
2022-09-13T17:26:01.731Z,18.8
2022-09-13T17:30:31.773Z,18.8
2022-09-13T17:35:54.707Z,18.7
2022-09-13T17:37:04.039Z,18.7
2022-09-13T17:38:09.290Z,18.8
2022-09-13T17:39:14.379Z,18.5
2022-09-13T17:40:18.785Z,18.6
2022-09-13T17:41:23.004Z,18.5
2022-09-13T17:42:27.352Z,18.4
2022-09-13T17:43:31.696Z,18.4
2022-09-13T17:44:36.023Z,18.4
2022-09-13T17:45:40.972Z,18.4
2022-09-13T17:46:45.774Z,18.6
2022-09-13T17:47:50.271Z,18.5
2022-09-13T17:48:54.455Z,18.6
2022-09-13T17:49:58.730Z,18.6
2022-09-13T17:51:04.255Z,18.6
2022-09-13T17:52:08.680Z,18.4
2022-09-13T17:53:12.832Z,18.4
2022-09-13T17:54:17.032Z,18.3
2022-09-13T17:55:21.308Z,18.4
2022-09-13T17:56:25.691Z,18.5
2022-09-13T17:57:35.136Z,18.3
2022-09-13T17:58:39.512Z,18.3
2022-09-13T17:59:45.348Z,18.3
2022-09-13T18:00:49.636Z,18.4
2022-09-13T18:02:03.988Z,18.2
2022-09-13T18:03:08.329Z,18.2
2022-09-13T18:04:12.724Z,18.2
2022-09-13T18:05:16.999Z,18.2
2022-09-13T18:06:21.431Z,18.3
2022-09-13T18:07:26.024Z,18.4
2022-09-13T18:08:33.023Z,18.4
2022-09-13T18:09:39.491Z,18.4
2022-09-13T18:11:10.468Z,18.2
2022-09-13T18:11:52.938Z,18.3
2022-09-13T18:12:58.080Z,18.3
2022-09-13T18:14:02.330Z,18.3
2022-09-13T18:15:06.676Z,18.3
2022-09-13T18:16:11.302Z,18.2
2022-09-13T18:17:20.719Z,18.2
2022-09-13T18:18:25.044Z,18.2
2022-09-13T18:19:45.183Z,18.3
2022-09-13T18:20:36.293Z,18.3
2022-09-13T18:21:37.989Z,18.2
2022-09-13T18:22:42.325Z,18.2
2022-09-13T18:23:46.841Z,18.2
2022-09-13T18:24:51.131Z,18.1
2022-09-13T18:25:57.518Z,18.2
2022-09-13T18:26:59.734Z,18.3
2022-09-13T18:28:04.031Z,18.3
2022-09-13T18:29:08.455Z,18.3
2022-09-13T18:30:12.756Z,18.2
2022-09-13T18:31:17.191Z,18.2
2022-09-13T18:32:21.474Z,18.2
2022-09-13T18:33:25.839Z,18.2
2022-09-13T18:34:30.155Z,18.2
2022-09-13T18:35:36.611Z,18.1
2022-09-13T18:36:41.007Z,18
2022-09-13T18:37:45.259Z,18
2022-09-13T18:38:49.625Z,18.2
2022-09-13T18:39:57.820Z,18.1
2022-09-13T18:41:02.536Z,18.2
2022-09-13T18:42:09.694Z,18.2
2022-09-13T18:43:14.171Z,18.3
2022-09-13T18:44:21.948Z,18.3
2022-09-13T18:45:26.303Z,18.2
2022-09-13T18:46:30.974Z,18.3
2022-09-13T18:47:35.223Z,18.4
2022-09-13T18:48:40.087Z,18.2
2022-09-13T18:49:44.471Z,18.3
2022-09-13T18:50:48.808Z,18.4
2022-09-13T18:51:56.195Z,18.2
2022-09-13T18:53:01.603Z,18.2
2022-09-13T18:54:05.947Z,18.1
2022-09-13T18:56:16.723Z,18.2
2022-09-13T18:58:24.610Z,18
2022-09-13T18:59:31.747Z,18.1
2022-09-13T19:00:36.295Z,18.1
2022-09-13T19:01:40.736Z,18.1
2022-09-13T19:03:02.339Z,18.2
2022-09-13T19:03:49.324Z,18.1
2022-09-13T19:04:56.939Z,18.4
2022-09-13T19:06:01.424Z,18.4
2022-09-13T19:07:11.815Z,18.2
2022-09-13T19:08:16.307Z,18.4
2022-09-13T19:09:20.921Z,18.5
2022-09-13T19:10:26.035Z,18.5
2022-09-13T19:11:45.654Z,18.6
2022-09-13T19:12:34.507Z,18.4
2022-09-13T19:13:38.902Z,18.4
2022-09-13T19:15:46.873Z,18.1
2022-09-13T19:16:51.448Z,18.1
2022-09-13T19:17:58.039Z,18.1
2022-09-13T19:19:05.255Z,18.2
2022-09-13T19:20:09.799Z,18.3
2022-09-13T19:21:18.848Z,18.3
2022-09-13T19:22:29.279Z,18.1
2022-09-13T19:23:49.088Z,18.1
2022-09-13T19:24:38.119Z,18.1
2022-09-13T19:25:47.035Z,18.1
2022-09-13T19:26:51.757Z,18
2022-09-13T19:27:56.543Z,17.8
2022-09-13T19:29:01.447Z,17.9
2022-09-13T19:30:05.938Z,17.8
2022-09-13T19:31:10.469Z,18
2022-09-13T19:32:15.887Z,17.9
2022-09-13T19:33:20.243Z,18
2022-09-13T19:34:24.571Z,17.9
2022-09-13T19:35:28.946Z,18
2022-09-13T19:36:35.355Z,18
2022-09-13T19:37:39.866Z,18.1
2022-09-13T19:38:44.212Z,18
2022-09-13T19:39:49.150Z,18.1
2022-09-13T19:40:53.246Z,18.1
2022-09-13T19:41:57.686Z,18.2
2022-09-13T19:43:02.179Z,18.2
2022-09-13T19:44:06.645Z,18
2022-09-13T19:45:11.010Z,17.9
2022-09-13T19:46:15.577Z,17.8
2022-09-13T19:48:38.490Z,17.7
2022-09-13T19:49:44.243Z,17.8
2022-09-13T19:50:50.182Z,17.9
2022-09-13T19:51:54.643Z,17.8
2022-09-13T19:52:59.146Z,17.9
2022-09-13T19:54:03.545Z,17.7
2022-09-13T19:55:08.147Z,17.7
2022-09-13T19:56:12.612Z,17.6
2022-09-13T19:57:16.954Z,17.7
2022-09-13T19:58:21.885Z,17.7
2022-09-13T19:59:30.719Z,17.6
2022-09-13T20:00:35.438Z,17.4
2022-09-13T20:03:29.366Z,17.7
2022-09-13T20:04:33.757Z,17.7
2022-09-13T20:05:39.175Z,17.5
2022-09-13T20:06:43.495Z,17.4
2022-09-13T20:07:48.150Z,17.5
2022-09-13T20:08:52.546Z,17.6
2022-09-13T20:09:59.375Z,17.6
2022-09-13T20:11:03.795Z,17.6
2022-09-13T20:12:11.290Z,17.7
2022-09-13T20:13:15.519Z,17.9
2022-09-13T20:14:19.939Z,17.7
2022-09-13T20:15:24.598Z,17.7
2022-09-13T20:16:29.439Z,17.8
2022-09-13T20:17:33.827Z,17.8
2022-09-13T20:18:42.326Z,17.6
2022-09-13T20:19:50.021Z,17.5
2022-09-13T20:20:51.695Z,17.6
2022-09-13T20:21:56.067Z,17.6
2022-09-13T20:23:00.778Z,17.6
2022-09-13T20:24:05.346Z,17.8
2022-09-13T20:25:09.807Z,18
2022-09-13T20:26:14.350Z,17.6
2022-09-13T20:27:19.143Z,17.8
2022-09-13T20:28:23.779Z,17.8
2022-09-13T20:29:31.950Z,17.7
2022-09-13T20:30:36.661Z,17.6
2022-09-13T20:31:40.867Z,17.6
2022-09-13T20:32:45.022Z,17.4
2022-09-13T20:33:49.144Z,17.7
2022-09-13T20:35:00.650Z,17.9
2022-09-13T20:36:05.646Z,17.7
2022-09-13T20:37:13.266Z,17.7
2022-09-13T20:40:11.699Z,17.9
2022-09-13T20:41:16.151Z,18
2022-09-13T20:42:23.371Z,17.8
2022-09-13T20:43:27.971Z,18
2022-09-13T20:44:35.355Z,17.9
2022-09-13T20:45:39.951Z,17.6
2022-09-13T20:46:49.281Z,17.9
2022-09-13T20:47:53.722Z,18.1
2022-09-13T20:49:02.343Z,17.9
2022-09-13T20:50:06.899Z,17.9
2022-09-13T20:51:11.199Z,18
2022-09-13T20:52:15.610Z,18.2
2022-09-13T20:53:20.055Z,18.1
2022-09-13T20:54:24.719Z,18
2022-09-13T20:55:31.202Z,17.8
2022-09-13T20:56:35.465Z,17.7
2022-09-13T20:57:39.658Z,17.9
2022-09-13T20:58:44.382Z,17.8
2022-09-13T20:59:53.178Z,17.9
2022-09-13T21:00:57.792Z,17.8
2022-09-13T21:02:01.994Z,18
2022-09-13T21:03:06.374Z,17.9
2022-09-13T21:04:10.743Z,17.9
2022-09-13T21:05:15.382Z,17.8
2022-09-13T21:06:19.784Z,17.9
2022-09-13T21:07:24.339Z,17.9
2022-09-13T21:08:34.375Z,18
2022-09-13T21:09:44.230Z,17.7
2022-09-13T21:10:48.687Z,17.8
2022-09-13T21:11:57.942Z,17.8
2022-09-13T21:13:02.363Z,17.8
2022-09-13T21:14:08.607Z,17.8
2022-09-13T21:15:12.977Z,17.7
2022-09-13T21:16:17.616Z,17.6
2022-09-13T21:17:24.969Z,17.7
2022-09-13T21:18:33.378Z,17.7
2022-09-13T21:19:41.935Z,17.8
2022-09-13T21:20:46.091Z,17.8
2022-09-13T21:21:58.327Z,17.9
2022-09-13T21:23:02.618Z,17.9
2022-09-13T21:24:08.020Z,18
2022-09-13T21:25:15.682Z,17.8
2022-09-13T21:26:20.418Z,17.9
2022-09-13T21:27:25.250Z,17.9
2022-09-13T21:28:29.998Z,17.9
2022-09-13T21:29:34.469Z,17.9
2022-09-13T21:30:38.774Z,17.8
2022-09-13T21:31:43.042Z,17.8
2022-09-13T21:32:48.363Z,17.8
2022-09-13T21:33:52.579Z,17.8
2022-09-13T21:34:57.363Z,17.8
2022-09-13T21:36:01.842Z,17.7
2022-09-13T21:37:06.515Z,17.7
2022-09-13T21:38:10.970Z,17.7
2022-09-13T21:39:18.023Z,17.9
2022-09-13T21:40:22.657Z,17.8
2022-09-13T21:41:27.666Z,17.9
2022-09-13T21:42:32.054Z,17.8
2022-09-13T21:43:36.474Z,17.9
2022-09-13T21:44:41.042Z,17.9
2022-09-13T21:45:45.601Z,17.7
2022-09-13T21:46:50.232Z,17.7
2022-09-13T21:47:58.107Z,17.8
2022-09-13T21:49:02.794Z,17.6
2022-09-13T21:50:07.510Z,17.7
2022-09-13T21:51:12.186Z,17.5
2022-09-13T21:52:22.410Z,17.7
2022-09-13T21:53:26.726Z,17.8
2022-09-13T21:54:33.606Z,17.8
2022-09-13T21:55:38.163Z,17.9
2022-09-13T21:56:42.530Z,17.6
2022-09-13T21:57:54.107Z,17.7
2022-09-13T21:58:59.624Z,17.8
2022-09-13T22:00:08.162Z,17.8
2022-09-13T22:01:15.336Z,17.8
2022-09-13T22:02:19.778Z,17.8
2022-09-13T22:07:02.580Z,18
2022-09-13T22:08:06.787Z,18
2022-09-13T22:09:11.011Z,17.8
2022-09-13T22:10:17.499Z,17.8
2022-09-13T22:11:21.819Z,17.7
2022-09-13T22:12:26.052Z,17.8
2022-09-13T22:13:30.358Z,17.8
2022-09-13T22:14:36.967Z,17.8
2022-09-13T22:15:41.543Z,17.9
2022-09-13T22:16:45.856Z,17.6
2022-09-13T22:17:50.078Z,17.8
2022-09-13T22:18:54.239Z,17.9
2022-09-13T22:20:00.802Z,17.9
2022-09-13T22:21:05.278Z,17.9
2022-09-13T22:22:09.442Z,17.9
2022-09-13T22:23:13.574Z,18.1
2022-09-13T22:24:17.918Z,18.1
2022-09-13T22:25:22.270Z,18.1
2022-09-13T22:26:26.335Z,17.8
2022-09-13T22:27:30.883Z,17.8
2022-09-13T22:28:35.263Z,17.8
2022-09-13T22:29:39.623Z,17.9
2022-09-13T22:30:44.234Z,17.9
2022-09-13T22:31:48.354Z,17.9
2022-09-13T22:32:56.578Z,17.7
2022-09-13T22:34:00.758Z,17.8
2022-09-13T22:35:05.090Z,17.9
2022-09-13T22:36:09.387Z,17.7
2022-09-13T22:37:13.711Z,17.7
2022-09-13T22:38:17.948Z,17.7
2022-09-13T22:39:23.671Z,17.9
2022-09-13T22:40:28.004Z,17.7
2022-09-13T22:41:32.047Z,17.7
2022-09-13T22:42:36.343Z,17.7
2022-09-13T22:43:40.492Z,17.8
2022-09-13T22:44:44.692Z,17.7
2022-09-13T22:45:48.961Z,17.7
2022-09-13T22:46:56.915Z,17.8
2022-09-13T22:48:01.323Z,17.9
2022-09-13T22:50:08.791Z,17.8
2022-09-13T22:51:13.043Z,17.8
2022-09-13T22:52:17.343Z,17.7
2022-09-13T22:53:22.155Z,17.7
2022-09-13T22:54:26.387Z,17.7
2022-09-13T22:56:36.612Z,17.6
2022-09-13T22:57:41.147Z,17.5
2022-09-13T22:58:47.045Z,17.5
2022-09-13T22:59:57.147Z,17.6
2022-09-13T23:01:03.842Z,17.7
2022-09-13T23:02:11.455Z,17.7
2022-09-13T23:03:15.878Z,17.6
2022-09-13T23:04:20.311Z,17.6
2022-09-13T23:05:24.519Z,17.6
2022-09-13T23:06:28.664Z,17.7
2022-09-13T23:07:33.099Z,17.7
2022-09-13T23:08:37.204Z,17.7
2022-09-13T23:09:42.924Z,17.8
2022-09-13T23:11:50.594Z,17.6
2022-09-13T23:12:54.779Z,17.7
2022-09-13T23:13:59.415Z,17.7
2022-09-13T23:15:03.840Z,17.6
2022-09-13T23:16:08.531Z,17.7
2022-09-13T23:17:20.452Z,17.8
2022-09-13T23:18:24.605Z,17.7
2022-09-13T23:19:28.807Z,17.6
2022-09-13T23:20:33.232Z,17.6
2022-09-13T23:21:37.420Z,17.6
2022-09-13T23:22:41.765Z,17.7
2022-09-13T23:23:46.107Z,17.5
2022-09-13T23:24:50.611Z,17.5
2022-09-13T23:25:54.779Z,17.6
2022-09-13T23:27:07.275Z,17.6
2022-09-13T23:28:11.611Z,17.7
2022-09-13T23:29:15.984Z,17.8
2022-09-13T23:30:20.230Z,17.6
2022-09-13T23:31:24.574Z,17.6
2022-09-13T23:32:31.463Z,17.8
2022-09-13T23:33:39.532Z,17.9
2022-09-13T23:34:46.659Z,17.9
2022-09-13T23:35:50.987Z,17.8
2022-09-13T23:36:55.238Z,17.8
2022-09-13T23:37:59.515Z,17.7
2022-09-13T23:39:04.016Z,17.7
2022-09-13T23:40:08.413Z,17.7
2022-09-13T23:41:13.131Z,17.6
2022-09-13T23:42:18.131Z,17.7
2022-09-13T23:43:22.967Z,17.5
2022-09-13T23:44:27.572Z,17.7
2022-09-13T23:45:32.007Z,17.7
2022-09-13T23:46:36.236Z,17.6
2022-09-13T23:47:42.834Z,17.6
2022-09-13T23:48:47.508Z,17.6
2022-09-13T23:49:51.915Z,17.6
2022-09-13T23:50:56.167Z,17.5
2022-09-13T23:52:06.246Z,17.5
2022-09-13T23:53:10.415Z,17.5
2022-09-13T23:54:14.607Z,17.6
2022-09-13T23:55:18.934Z,17.6
2022-09-13T23:56:27.108Z,17.6
2022-09-13T23:57:32.059Z,17.6
2022-09-13T23:58:39.087Z,17.6
2022-09-13T23:59:43.379Z,17.5
